sensor_id;sensor_type;location;lat;lon;timestamp;P1;durP1;ratioP1;P2;durP2;ratioP2
53879;SDS011;39791;53.184;5.486;2024-03-23T00:53:11;46.47;;;34.35;;
53879;SDS011;39791;53.184;5.486;2024-03-23T00:55:37;45.80;;;34.10;;
53879;SDS011;39791;53.184;5.486;2024-03-23T00:58:03;46.05;;;32.10;;
53879;SDS011;39791;53.184;5.486;2024-03-23T01:00:29;50.22;;;34.35;;
53879;SDS011;39791;53.184;5.486;2024-03-23T01:02:54;48.55;;;34.20;;
53879;SDS011;39791;53.184;5.486;2024-03-23T01:05:20;45.85;;;33.50;;
53879;SDS011;39791;53.184;5.486;2024-03-23T01:07:46;52.72;;;37.60;;
53879;SDS011;39791;53.184;5.486;2024-03-23T01:10:11;49.05;;;35.55;;
53879;SDS011;39791;53.184;5.486;2024-03-23T01:12:37;46.95;;;33.55;;
53879;SDS011;39791;53.184;5.486;2024-03-23T01:15:03;52.83;;;33.92;;
53879;SDS011;39791;53.184;5.486;2024-03-23T01:17:28;44.58;;;29.05;;
53879;SDS011;39791;53.184;5.486;2024-03-23T01:19:54;42.03;;;29.23;;
53879;SDS011;39791;53.184;5.486;2024-03-23T01:22:20;46.33;;;35.05;;
53879;SDS011;39791;53.184;5.486;2024-03-23T01:24:45;41.90;;;32.50;;
53879;SDS011;39791;53.184;5.486;2024-03-23T01:27:11;50.65;;;35.45;;
53879;SDS011;39791;53.184;5.486;2024-03-23T01:29:37;39.03;;;33.03;;
53879;SDS011;39791;53.184;5.486;2024-03-23T01:32:04;46.10;;;36.60;;
53879;SDS011;39791;53.184;5.486;2024-03-23T01:34:30;53.30;;;40.65;;
53879;SDS011;39791;53.184;5.486;2024-03-23T01:36:55;47.42;;;37.35;;
53879;SDS011;39791;53.184;5.486;2024-03-23T01:39:21;56.88;;;42.13;;
53879;SDS011;39791;53.184;5.486;2024-03-23T01:41:47;53.63;;;43.38;;
53879;SDS011;39791;53.184;5.486;2024-03-23T01:44:12;55.55;;;38.92;;
53879;SDS011;39791;53.184;5.486;2024-03-23T01:46:38;52.85;;;40.65;;
53879;SDS011;39791;53.184;5.486;2024-03-23T01:49:04;49.33;;;37.80;;
53879;SDS011;39791;53.184;5.486;2024-03-23T01:51:30;50.30;;;40.33;;
53879;SDS011;39791;53.184;5.486;2024-03-23T01:53:58;57.55;;;38.40;;
53879;SDS011;39791;53.184;5.486;2024-03-23T01:56:28;52.30;;;36.72;;
53879;SDS011;39791;53.184;5.486;2024-03-23T01:59:03;55.65;;;38.72;;
53879;SDS011;39791;53.184;5.486;2024-03-23T02:01:30;54.63;;;39.75;;
53879;SDS011;39791;53.184;5.486;2024-03-23T02:03:56;50.97;;;34.22;;
53879;SDS011;39791;53.184;5.486;2024-03-23T02:06:22;46.58;;;33.17;;
53879;SDS011;39791;53.184;5.486;2024-03-23T02:08:49;52.65;;;36.65;;
53879;SDS011;39791;53.184;5.486;2024-03-23T02:11:14;32.83;;;29.40;;
53879;SDS011;39791;53.184;5.486;2024-03-23T02:13:40;48.63;;;37.33;;
53879;SDS011;39791;53.184;5.486;2024-03-23T02:16:06;50.35;;;36.97;;
53879;SDS011;39791;53.184;5.486;2024-03-23T02:18:34;57.08;;;40.45;;
53879;SDS011;39791;53.184;5.486;2024-03-23T02:21:00;52.65;;;41.05;;
53879;SDS011;39791;53.184;5.486;2024-03-23T02:23:25;51.33;;;40.42;;
53879;SDS011;39791;53.184;5.486;2024-03-23T02:25:51;55.70;;;39.85;;
53879;SDS011;39791;53.184;5.486;2024-03-23T02:28:18;52.47;;;37.50;;
53879;SDS011;39791;53.184;5.486;2024-03-23T02:30:44;43.70;;;32.40;;
53879;SDS011;39791;53.184;5.486;2024-03-23T02:33:10;54.00;;;38.03;;
53879;SDS011;39791;53.184;5.486;2024-03-23T02:35:36;62.63;;;42.42;;
53879;SDS011;39791;53.184;5.486;2024-03-23T02:38:02;50.00;;;35.65;;
53879;SDS011;39791;53.184;5.486;2024-03-23T02:40:28;51.50;;;37.13;;
53879;SDS011;39791;53.184;5.486;2024-03-23T02:42:53;49.92;;;34.83;;
53879;SDS011;39791;53.184;5.486;2024-03-23T02:45:19;56.53;;;43.40;;
53879;SDS011;39791;53.184;5.486;2024-03-23T02:47:45;52.35;;;38.25;;
53879;SDS011;39791;53.184;5.486;2024-03-23T02:50:11;46.08;;;37.08;;
53879;SDS011;39791;53.184;5.486;2024-03-23T02:52:37;53.35;;;39.85;;
53879;SDS011;39791;53.184;5.486;2024-03-23T02:55:03;44.85;;;35.40;;
53879;SDS011;39791;53.184;5.486;2024-03-23T02:57:29;56.20;;;36.65;;
53879;SDS011;39791;53.184;5.486;2024-03-23T02:59:55;50.80;;;37.05;;
53879;SDS011;39791;53.184;5.486;2024-03-23T03:02:21;47.72;;;34.45;;
53879;SDS011;39791;53.184;5.486;2024-03-23T03:04:47;54.05;;;35.83;;
53879;SDS011;39791;53.184;5.486;2024-03-23T03:07:13;50.20;;;38.33;;
53879;SDS011;39791;53.184;5.486;2024-03-23T03:09:39;47.83;;;38.92;;
53879;SDS011;39791;53.184;5.486;2024-03-23T03:12:05;47.28;;;38.35;;
53879;SDS011;39791;53.184;5.486;2024-03-23T03:14:31;50.67;;;37.97;;
53879;SDS011;39791;53.184;5.486;2024-03-23T03:16:57;44.42;;;31.77;;
53879;SDS011;39791;53.184;5.486;2024-03-23T03:19:23;47.25;;;36.28;;
53879;SDS011;39791;53.184;5.486;2024-03-23T03:21:48;51.20;;;38.67;;
53879;SDS011;39791;53.184;5.486;2024-03-23T03:24:14;46.35;;;34.60;;
53879;SDS011;39791;53.184;5.486;2024-03-23T03:26:40;46.17;;;31.88;;
53879;SDS011;39791;53.184;5.486;2024-03-23T03:29:05;32.28;;;27.70;;
53879;SDS011;39791;53.184;5.486;2024-03-23T03:31:31;44.95;;;34.78;;
53879;SDS011;39791;53.184;5.486;2024-03-23T03:33:57;51.58;;;35.25;;
53879;SDS011;39791;53.184;5.486;2024-03-23T03:36:22;47.60;;;34.13;;
53879;SDS011;39791;53.184;5.486;2024-03-23T03:38:48;42.60;;;31.63;;
53879;SDS011;39791;53.184;5.486;2024-03-23T03:41:13;43.83;;;29.45;;
53879;SDS011;39791;53.184;5.486;2024-03-23T03:43:39;42.15;;;33.95;;
53879;SDS011;39791;53.184;5.486;2024-03-23T03:46:05;44.63;;;34.03;;
53879;SDS011;39791;53.184;5.486;2024-03-23T03:48:33;33.97;;;28.50;;
53879;SDS011;39791;53.184;5.486;2024-03-23T03:50:59;52.00;;;40.45;;
53879;SDS011;39791;53.184;5.486;2024-03-23T03:53:25;50.20;;;40.00;;
53879;SDS011;39791;53.184;5.486;2024-03-23T03:55:51;48.92;;;36.17;;
53879;SDS011;39791;53.184;5.486;2024-03-23T03:58:17;43.17;;;32.95;;
53879;SDS011;39791;53.184;5.486;2024-03-23T04:00:42;34.33;;;27.35;;
53879;SDS011;39791;53.184;5.486;2024-03-23T04:03:08;29.48;;;25.10;;
53879;SDS011;39791;53.184;5.486;2024-03-23T04:05:34;44.65;;;30.95;;
53879;SDS011;39791;53.184;5.486;2024-03-23T04:07:59;27.92;;;23.45;;
53879;SDS011;39791;53.184;5.486;2024-03-23T04:10:25;40.85;;;28.98;;
53879;SDS011;39791;53.184;5.486;2024-03-23T04:12:51;42.45;;;32.70;;
53879;SDS011;39791;53.184;5.486;2024-03-23T04:15:18;28.02;;;25.08;;
53879;SDS011;39791;53.184;5.486;2024-03-23T04:17:44;30.38;;;27.20;;
53879;SDS011;39791;53.184;5.486;2024-03-23T04:20:10;33.63;;;25.80;;
53879;SDS011;39791;53.184;5.486;2024-03-23T04:22:38;39.30;;;29.92;;
53879;SDS011;39791;53.184;5.486;2024-03-23T04:25:05;37.53;;;29.08;;
53879;SDS011;39791;53.184;5.486;2024-03-23T04:27:38;33.80;;;26.83;;
53879;SDS011;39791;53.184;5.486;2024-03-23T04:30:06;35.67;;;26.65;;
53879;SDS011;39791;53.184;5.486;2024-03-23T04:32:39;29.48;;;23.40;;
53879;SDS011;39791;53.184;5.486;2024-03-23T04:35:05;25.50;;;22.55;;
53879;SDS011;39791;53.184;5.486;2024-03-23T04:37:34;37.65;;;28.70;;
53879;SDS011;39791;53.184;5.486;2024-03-23T04:40:00;38.95;;;29.38;;
53879;SDS011;39791;53.184;5.486;2024-03-23T04:42:27;48.15;;;35.15;;
53879;SDS011;39791;53.184;5.486;2024-03-23T04:44:53;37.97;;;29.95;;
53879;SDS011;39791;53.184;5.486;2024-03-23T04:47:18;44.67;;;32.83;;
53879;SDS011;39791;53.184;5.486;2024-03-23T04:49:44;46.03;;;36.45;;
53879;SDS011;39791;53.184;5.486;2024-03-23T04:52:10;48.25;;;37.95;;
53879;SDS011;39791;53.184;5.486;2024-03-23T04:54:35;28.92;;;25.52;;
53879;SDS011;39791;53.184;5.486;2024-03-23T04:57:01;41.50;;;30.13;;
53879;SDS011;39791;53.184;5.486;2024-03-23T04:59:26;39.78;;;29.70;;
53879;SDS011;39791;53.184;5.486;2024-03-23T05:01:52;38.88;;;31.10;;
53879;SDS011;39791;53.184;5.486;2024-03-23T05:04:18;28.67;;;25.90;;
53879;SDS011;39791;53.184;5.486;2024-03-23T05:06:43;39.47;;;30.60;;
53879;SDS011;39791;53.184;5.486;2024-03-23T05:09:09;32.58;;;25.75;;
53879;SDS011;39791;53.184;5.486;2024-03-23T05:11:39;49.33;;;34.88;;
53879;SDS011;39791;53.184;5.486;2024-03-23T05:14:06;31.88;;;26.33;;
53879;SDS011;39791;53.184;5.486;2024-03-23T05:16:32;31.92;;;25.63;;
53879;SDS011;39791;53.184;5.486;2024-03-23T05:18:58;47.05;;;32.42;;
53879;SDS011;39791;53.184;5.486;2024-03-23T05:21:23;30.92;;;26.08;;
53879;SDS011;39791;53.184;5.486;2024-03-23T05:23:49;50.33;;;32.63;;
53879;SDS011;39791;53.184;5.486;2024-03-23T05:26:16;34.05;;;28.15;;
53879;SDS011;39791;53.184;5.486;2024-03-23T05:28:42;39.25;;;32.47;;
53879;SDS011;39791;53.184;5.486;2024-03-23T05:31:07;45.65;;;32.83;;
53879;SDS011;39791;53.184;5.486;2024-03-23T05:33:34;36.88;;;30.00;;
53879;SDS011;39791;53.184;5.486;2024-03-23T05:36:03;26.75;;;23.92;;
53879;SDS011;39791;53.184;5.486;2024-03-23T05:38:29;25.25;;;21.00;;
53879;SDS011;39791;53.184;5.486;2024-03-23T05:43:22;22.85;;;20.48;;
53879;SDS011;39791;53.184;5.486;2024-03-23T05:45:57;22.75;;;20.50;;
53879;SDS011;39791;53.184;5.486;2024-03-23T05:50:50;54.83;;;43.50;;
53879;SDS011;39791;53.184;5.486;2024-03-23T05:53:16;62.03;;;41.55;;
53879;SDS011;39791;53.184;5.486;2024-03-23T05:55:43;61.08;;;45.85;;
53879;SDS011;39791;53.184;5.486;2024-03-23T05:58:09;69.53;;;48.58;;
53879;SDS011;39791;53.184;5.486;2024-03-23T06:00:35;54.13;;;42.17;;
53879;SDS011;39791;53.184;5.486;2024-03-23T06:03:01;46.97;;;35.92;;
53879;SDS011;39791;53.184;5.486;2024-03-23T06:05:26;25.67;;;23.45;;
53879;SDS011;39791;53.184;5.486;2024-03-23T06:07:52;23.52;;;21.27;;
53879;SDS011;39791;53.184;5.486;2024-03-23T06:10:18;27.30;;;20.83;;
53879;SDS011;39791;53.184;5.486;2024-03-23T06:12:45;38.40;;;28.08;;
53879;SDS011;39791;53.184;5.486;2024-03-23T06:15:11;38.25;;;31.83;;
53879;SDS011;39791;53.184;5.486;2024-03-23T06:17:37;23.35;;;21.02;;
53879;SDS011;39791;53.184;5.486;2024-03-23T06:20:03;26.92;;;24.05;;
53879;SDS011;39791;53.184;5.486;2024-03-23T06:22:31;40.47;;;31.90;;
53879;SDS011;39791;53.184;5.486;2024-03-23T06:24:57;33.50;;;29.90;;
53879;SDS011;39791;53.184;5.486;2024-03-23T06:27:22;39.55;;;31.02;;
53879;SDS011;39791;53.184;5.486;2024-03-23T06:29:48;28.50;;;25.13;;
53879;SDS011;39791;53.184;5.486;2024-03-23T06:32:14;37.30;;;26.48;;
53879;SDS011;39791;53.184;5.486;2024-03-23T06:34:42;33.20;;;23.90;;
53879;SDS011;39791;53.184;5.486;2024-03-23T06:37:08;28.23;;;22.08;;
53879;SDS011;39791;53.184;5.486;2024-03-23T06:39:37;29.63;;;21.73;;
53879;SDS011;39791;53.184;5.486;2024-03-23T06:42:03;29.65;;;23.02;;
53879;SDS011;39791;53.184;5.486;2024-03-23T06:44:30;41.33;;;32.63;;
53879;SDS011;39791;53.184;5.486;2024-03-23T06:46:56;31.65;;;26.02;;
53879;SDS011;39791;53.184;5.486;2024-03-23T06:49:22;26.90;;;24.25;;
53879;SDS011;39791;53.184;5.486;2024-03-23T06:51:48;38.85;;;29.50;;
53879;SDS011;39791;53.184;5.486;2024-03-23T06:54:16;40.15;;;26.20;;
53879;SDS011;39791;53.184;5.486;2024-03-23T06:56:46;34.75;;;28.48;;
53879;SDS011;39791;53.184;5.486;2024-03-23T06:59:11;25.33;;;22.20;;
53879;SDS011;39791;53.184;5.486;2024-03-23T07:01:37;32.35;;;25.13;;
53879;SDS011;39791;53.184;5.486;2024-03-23T07:04:03;33.47;;;26.83;;
53879;SDS011;39791;53.184;5.486;2024-03-23T07:06:29;36.28;;;32.22;;
53879;SDS011;39791;53.184;5.486;2024-03-23T07:08:55;34.67;;;28.45;;
53879;SDS011;39791;53.184;5.486;2024-03-23T07:11:22;29.42;;;21.55;;
53879;SDS011;39791;53.184;5.486;2024-03-23T07:13:51;33.00;;;24.90;;
53879;SDS011;39791;53.184;5.486;2024-03-23T07:16:19;27.17;;;22.48;;
53879;SDS011;39791;53.184;5.486;2024-03-23T07:18:45;41.00;;;26.67;;
53879;SDS011;39791;53.184;5.486;2024-03-23T07:21:11;36.10;;;27.38;;
53879;SDS011;39791;53.184;5.486;2024-03-23T07:23:36;29.17;;;23.88;;
53879;SDS011;39791;53.184;5.486;2024-03-23T07:26:03;29.25;;;21.90;;
53879;SDS011;39791;53.184;5.486;2024-03-23T07:28:33;31.67;;;22.83;;
53879;SDS011;39791;53.184;5.486;2024-03-23T07:31:01;33.15;;;23.73;;
53879;SDS011;39791;53.184;5.486;2024-03-23T07:33:27;37.80;;;29.48;;
53879;SDS011;39791;53.184;5.486;2024-03-23T07:35:53;26.58;;;18.85;;
53879;SDS011;39791;53.184;5.486;2024-03-23T07:38:19;22.17;;;19.65;;
53879;SDS011;39791;53.184;5.486;2024-03-23T07:40:44;25.65;;;20.08;;
53879;SDS011;39791;53.184;5.486;2024-03-23T07:43:10;22.05;;;19.80;;
53879;SDS011;39791;53.184;5.486;2024-03-23T07:45:36;28.63;;;23.65;;
53879;SDS011;39791;53.184;5.486;2024-03-23T07:48:03;30.67;;;24.45;;
53879;SDS011;39791;53.184;5.486;2024-03-23T07:50:29;42.20;;;28.13;;
53879;SDS011;39791;53.184;5.486;2024-03-23T07:52:55;41.15;;;31.05;;
53879;SDS011;39791;53.184;5.486;2024-03-23T07:55:20;42.83;;;32.45;;
53879;SDS011;39791;53.184;5.486;2024-03-23T07:57:46;36.90;;;29.35;;
53879;SDS011;39791;53.184;5.486;2024-03-23T08:00:12;33.47;;;26.02;;
53879;SDS011;39791;53.184;5.486;2024-03-23T08:02:39;31.90;;;23.20;;
53879;SDS011;39791;53.184;5.486;2024-03-23T08:05:05;34.83;;;23.65;;
53879;SDS011;39791;53.184;5.486;2024-03-23T08:07:30;32.97;;;22.42;;
53879;SDS011;39791;53.184;5.486;2024-03-23T08:09:56;23.77;;;17.70;;
53879;SDS011;39791;53.184;5.486;2024-03-23T08:12:24;31.00;;;21.20;;
53879;SDS011;39791;53.184;5.486;2024-03-23T08:14:49;36.00;;;23.25;;
53879;SDS011;39791;53.184;5.486;2024-03-23T08:17:15;38.47;;;26.02;;
53879;SDS011;39791;53.184;5.486;2024-03-23T08:19:40;32.33;;;24.95;;
53879;SDS011;39791;53.184;5.486;2024-03-23T08:22:06;23.85;;;20.75;;
53879;SDS011;39791;53.184;5.486;2024-03-23T08:24:32;30.15;;;23.45;;
53879;SDS011;39791;53.184;5.486;2024-03-23T08:26:59;38.45;;;27.13;;
53879;SDS011;39791;53.184;5.486;2024-03-23T08:29:24;36.10;;;28.45;;
53879;SDS011;39791;53.184;5.486;2024-03-23T08:31:50;41.72;;;27.65;;
53879;SDS011;39791;53.184;5.486;2024-03-23T08:34:16;39.65;;;27.38;;
53879;SDS011;39791;53.184;5.486;2024-03-23T08:36:41;41.92;;;30.38;;
53879;SDS011;39791;53.184;5.486;2024-03-23T08:39:07;48.55;;;31.95;;
53879;SDS011;39791;53.184;5.486;2024-03-23T08:41:33;44.78;;;32.03;;
53879;SDS011;39791;53.184;5.486;2024-03-23T08:43:59;53.20;;;36.60;;
53879;SDS011;39791;53.184;5.486;2024-03-23T08:46:25;48.38;;;34.38;;
53879;SDS011;39791;53.184;5.486;2024-03-23T08:48:51;35.20;;;31.17;;
53879;SDS011;39791;53.184;5.486;2024-03-23T08:51:18;47.40;;;34.63;;
53879;SDS011;39791;53.184;5.486;2024-03-23T08:53:44;43.38;;;33.03;;
53879;SDS011;39791;53.184;5.486;2024-03-23T08:56:10;45.38;;;34.13;;
53879;SDS011;39791;53.184;5.486;2024-03-23T08:58:37;33.13;;;25.15;;
53879;SDS011;39791;53.184;5.486;2024-03-23T09:01:06;32.40;;;22.85;;
53879;SDS011;39791;53.184;5.486;2024-03-23T09:03:34;36.63;;;23.60;;
53879;SDS011;39791;53.184;5.486;2024-03-23T09:06:00;34.97;;;22.15;;
53879;SDS011;39791;53.184;5.486;2024-03-23T09:08:26;32.47;;;22.98;;
53879;SDS011;39791;53.184;5.486;2024-03-23T09:10:52;34.92;;;23.58;;
53879;SDS011;39791;53.184;5.486;2024-03-23T09:13:18;36.40;;;23.58;;
53879;SDS011;39791;53.184;5.486;2024-03-23T09:15:50;34.83;;;25.00;;
53879;SDS011;39791;53.184;5.486;2024-03-23T09:18:21;39.67;;;26.65;;
53879;SDS011;39791;53.184;5.486;2024-03-23T09:20:46;32.85;;;25.55;;
53879;SDS011;39791;53.184;5.486;2024-03-23T09:23:12;47.30;;;38.03;;
53879;SDS011;39791;53.184;5.486;2024-03-23T09:25:38;53.22;;;39.08;;
53879;SDS011;39791;53.184;5.486;2024-03-23T09:28:04;50.33;;;36.63;;
53879;SDS011;39791;53.184;5.486;2024-03-23T09:30:32;49.78;;;38.45;;
53879;SDS011;39791;53.184;5.486;2024-03-23T09:32:58;42.00;;;30.45;;
53879;SDS011;39791;53.184;5.486;2024-03-23T09:35:24;37.65;;;26.90;;
53879;SDS011;39791;53.184;5.486;2024-03-23T09:37:50;42.00;;;30.58;;
53879;SDS011;39791;53.184;5.486;2024-03-23T09:40:15;44.10;;;30.92;;
53879;SDS011;39791;53.184;5.486;2024-03-23T09:42:41;45.05;;;32.58;;
53879;SDS011;39791;53.184;5.486;2024-03-23T09:45:22;39.83;;;31.50;;
53879;SDS011;39791;53.184;5.486;2024-03-23T09:47:52;34.28;;;30.45;;
53879;SDS011;39791;53.184;5.486;2024-03-23T09:50:18;35.78;;;27.90;;
53879;SDS011;39791;53.184;5.486;2024-03-23T09:52:45;32.45;;;26.00;;
53879;SDS011;39791;53.184;5.486;2024-03-23T09:55:11;39.13;;;29.98;;
53879;SDS011;39791;53.184;5.486;2024-03-23T09:57:39;37.55;;;28.27;;
53879;SDS011;39791;53.184;5.486;2024-03-23T10:00:05;35.80;;;28.73;;
53879;SDS011;39791;53.184;5.486;2024-03-23T10:02:31;53.78;;;39.53;;
53879;SDS011;39791;53.184;5.486;2024-03-23T10:04:59;58.13;;;46.10;;
53879;SDS011;39791;53.184;5.486;2024-03-23T10:07:25;50.28;;;39.95;;
53879;SDS011;39791;53.184;5.486;2024-03-23T10:09:53;32.65;;;27.88;;
53879;SDS011;39791;53.184;5.486;2024-03-23T10:12:19;38.78;;;31.42;;
53879;SDS011;39791;53.184;5.486;2024-03-23T10:14:45;39.88;;;28.83;;
53879;SDS011;39791;53.184;5.486;2024-03-23T10:19:45;37.92;;;30.67;;
53879;SDS011;39791;53.184;5.486;2024-03-23T10:22:13;34.75;;;28.05;;
53879;SDS011;39791;53.184;5.486;2024-03-23T10:24:39;30.38;;;24.75;;
53879;SDS011;39791;53.184;5.486;2024-03-23T10:27:06;35.53;;;26.85;;
53879;SDS011;39791;53.184;5.486;2024-03-23T10:29:32;30.52;;;24.25;;
53879;SDS011;39791;53.184;5.486;2024-03-23T10:34:53;33.13;;;24.00;;
53879;SDS011;39791;53.184;5.486;2024-03-23T10:37:18;36.65;;;26.80;;
53879;SDS011;39791;53.184;5.486;2024-03-23T10:39:45;24.75;;;19.40;;
53879;SDS011;39791;53.184;5.486;2024-03-23T10:42:11;17.92;;;16.00;;
53879;SDS011;39791;53.184;5.486;2024-03-23T10:44:36;26.25;;;19.83;;
53879;SDS011;39791;53.184;5.486;2024-03-23T10:47:03;35.05;;;26.85;;
53879;SDS011;39791;53.184;5.486;2024-03-23T10:49:30;49.70;;;35.53;;
53879;SDS011;39791;53.184;5.486;2024-03-23T10:52:04;46.63;;;32.92;;
53879;SDS011;39791;53.184;5.486;2024-03-23T10:54:31;54.20;;;40.58;;
53879;SDS011;39791;53.184;5.486;2024-03-23T10:59:38;61.05;;;41.10;;
53879;SDS011;39791;53.184;5.486;2024-03-23T11:02:04;52.83;;;36.63;;
53879;SDS011;39791;53.184;5.486;2024-03-23T11:04:30;51.65;;;34.35;;
53879;SDS011;39791;53.184;5.486;2024-03-23T11:07:01;37.35;;;26.75;;
53879;SDS011;39791;53.184;5.486;2024-03-23T11:09:43;37.83;;;30.25;;
53879;SDS011;39791;53.184;5.486;2024-03-23T11:17:20;38.85;;;33.00;;
53879;SDS011;39791;53.184;5.486;2024-03-23T11:28:09;33.72;;;23.02;;
53879;SDS011;39791;53.184;5.486;2024-03-23T11:30:36;36.25;;;25.67;;
53879;SDS011;39791;53.184;5.486;2024-03-23T11:33:05;35.72;;;24.73;;
53879;SDS011;39791;53.184;5.486;2024-03-23T11:35:32;29.23;;;17.10;;
53879;SDS011;39791;53.184;5.486;2024-03-23T11:40:37;28.35;;;22.23;;
53879;SDS011;39791;53.184;5.486;2024-03-23T11:43:04;34.47;;;24.90;;
53879;SDS011;39791;53.184;5.486;2024-03-23T11:45:34;31.33;;;22.30;;
53879;SDS011;39791;53.184;5.486;2024-03-23T11:48:04;34.85;;;25.55;;
53879;SDS011;39791;53.184;5.486;2024-03-23T11:50:35;40.05;;;26.20;;
53879;SDS011;39791;53.184;5.486;2024-03-23T11:53:12;31.27;;;23.20;;
53879;SDS011;39791;53.184;5.486;2024-03-23T11:55:39;40.70;;;24.85;;
53879;SDS011;39791;53.184;5.486;2024-03-23T11:58:08;35.53;;;26.95;;
53879;SDS011;39791;53.184;5.486;2024-03-23T12:00:34;35.33;;;22.95;;
53879;SDS011;39791;53.184;5.486;2024-03-23T12:03:01;38.75;;;22.70;;
53879;SDS011;39791;53.184;5.486;2024-03-23T12:05:27;35.53;;;22.38;;
53879;SDS011;39791;53.184;5.486;2024-03-23T12:07:53;32.20;;;21.42;;
53879;SDS011;39791;53.184;5.486;2024-03-23T12:10:19;41.05;;;29.10;;
53879;SDS011;39791;53.184;5.486;2024-03-23T12:12:45;37.67;;;22.70;;
53879;SDS011;39791;53.184;5.486;2024-03-23T12:15:10;34.58;;;25.88;;
53879;SDS011;39791;53.184;5.486;2024-03-23T12:17:37;30.50;;;24.58;;
53879;SDS011;39791;53.184;5.486;2024-03-23T12:20:04;27.35;;;21.95;;
53879;SDS011;39791;53.184;5.486;2024-03-23T12:22:31;35.97;;;25.17;;
53879;SDS011;39791;53.184;5.486;2024-03-23T12:24:57;42.65;;;29.30;;
53879;SDS011;39791;53.184;5.486;2024-03-23T12:27:22;41.55;;;33.33;;
53879;SDS011;39791;53.184;5.486;2024-03-23T12:29:48;44.88;;;38.10;;
53879;SDS011;39791;53.184;5.486;2024-03-23T12:32:14;45.30;;;37.03;;
53879;SDS011;39791;53.184;5.486;2024-03-23T12:34:40;54.22;;;43.28;;
53879;SDS011;39791;53.184;5.486;2024-03-23T12:37:07;56.75;;;43.13;;
53879;SDS011;39791;53.184;5.486;2024-03-23T12:39:32;69.28;;;50.63;;
53879;SDS011;39791;53.184;5.486;2024-03-23T12:42:00;68.80;;;52.53;;
53879;SDS011;39791;53.184;5.486;2024-03-23T12:44:26;70.07;;;54.47;;
53879;SDS011;39791;53.184;5.486;2024-03-23T12:46:52;50.88;;;41.42;;
53879;SDS011;39791;53.184;5.486;2024-03-23T12:49:18;56.50;;;46.88;;
53879;SDS011;39791;53.184;5.486;2024-03-23T12:51:46;67.97;;;52.15;;
53879;SDS011;39791;53.184;5.486;2024-03-23T12:54:19;60.40;;;48.55;;
53879;SDS011;39791;53.184;5.486;2024-03-23T12:56:45;48.47;;;39.50;;
53879;SDS011;39791;53.184;5.486;2024-03-23T12:59:14;62.38;;;45.88;;
53879;SDS011;39791;53.184;5.486;2024-03-23T13:01:41;57.47;;;46.45;;
53879;SDS011;39791;53.184;5.486;2024-03-23T13:04:08;52.45;;;38.80;;
53879;SDS011;39791;53.184;5.486;2024-03-23T13:06:34;57.45;;;43.15;;
53879;SDS011;39791;53.184;5.486;2024-03-23T13:09:03;70.13;;;49.55;;
53879;SDS011;39791;53.184;5.486;2024-03-23T13:11:30;73.93;;;55.30;;
53879;SDS011;39791;53.184;5.486;2024-03-23T13:13:56;66.07;;;49.42;;
53879;SDS011;39791;53.184;5.486;2024-03-23T13:16:21;84.97;;;64.53;;
53879;SDS011;39791;53.184;5.486;2024-03-23T13:18:47;78.93;;;51.13;;
53879;SDS011;39791;53.184;5.486;2024-03-23T13:21:13;82.13;;;62.72;;
53879;SDS011;39791;53.184;5.486;2024-03-23T13:23:38;56.78;;;48.58;;
53879;SDS011;39791;53.184;5.486;2024-03-23T13:26:07;62.67;;;53.67;;
53879;SDS011;39791;53.184;5.486;2024-03-23T13:28:32;49.72;;;41.33;;
53879;SDS011;39791;53.184;5.486;2024-03-23T13:30:58;54.38;;;38.92;;
53879;SDS011;39791;53.184;5.486;2024-03-23T13:33:28;45.17;;;34.28;;
53879;SDS011;39791;53.184;5.486;2024-03-23T13:35:55;48.25;;;36.20;;
53879;SDS011;39791;53.184;5.486;2024-03-23T13:38:21;39.92;;;29.33;;
53879;SDS011;39791;53.184;5.486;2024-03-23T13:43:20;39.50;;;29.83;;
53879;SDS011;39791;53.184;5.486;2024-03-23T13:45:49;36.67;;;27.10;;
53879;SDS011;39791;53.184;5.486;2024-03-23T13:48:25;36.60;;;25.83;;
53879;SDS011;39791;53.184;5.486;2024-03-23T13:51:02;31.83;;;23.70;;
53879;SDS011;39791;53.184;5.486;2024-03-23T13:53:29;27.15;;;19.92;;
53879;SDS011;39791;53.184;5.486;2024-03-23T13:55:55;37.83;;;27.45;;
53879;SDS011;39791;53.184;5.486;2024-03-23T13:58:21;38.65;;;23.83;;
53879;SDS011;39791;53.184;5.486;2024-03-23T14:00:48;24.88;;;20.60;;
53879;SDS011;39791;53.184;5.486;2024-03-23T14:03:14;22.73;;;19.92;;
53879;SDS011;39791;53.184;5.486;2024-03-23T14:05:40;35.63;;;25.42;;
53879;SDS011;39791;53.184;5.486;2024-03-23T14:08:06;32.10;;;22.92;;
53879;SDS011;39791;53.184;5.486;2024-03-23T14:10:33;31.65;;;24.20;;
53879;SDS011;39791;53.184;5.486;2024-03-23T14:12:58;36.53;;;24.08;;
53879;SDS011;39791;53.184;5.486;2024-03-23T14:15:28;34.10;;;24.75;;
53879;SDS011;39791;53.184;5.486;2024-03-23T14:17:55;34.10;;;24.83;;
53879;SDS011;39791;53.184;5.486;2024-03-23T14:20:21;29.92;;;22.90;;
53879;SDS011;39791;53.184;5.486;2024-03-23T14:22:48;36.95;;;23.92;;
53879;SDS011;39791;53.184;5.486;2024-03-23T14:25:13;29.75;;;20.23;;
53879;SDS011;39791;53.184;5.486;2024-03-23T14:27:39;33.05;;;23.02;;
53879;SDS011;39791;53.184;5.486;2024-03-23T14:30:05;33.95;;;22.67;;
53879;SDS011;39791;53.184;5.486;2024-03-23T14:32:32;31.58;;;22.65;;
53879;SDS011;39791;53.184;5.486;2024-03-23T14:35:05;31.00;;;21.98;;
53879;SDS011;39791;53.184;5.486;2024-03-23T14:37:38;32.03;;;24.13;;
53879;SDS011;39791;53.184;5.486;2024-03-23T14:40:04;31.15;;;25.55;;
53879;SDS011;39791;53.184;5.486;2024-03-23T14:42:30;29.73;;;21.05;;
53879;SDS011;39791;53.184;5.486;2024-03-23T14:44:58;28.55;;;22.50;;
53879;SDS011;39791;53.184;5.486;2024-03-23T14:47:24;32.97;;;23.65;;
53879;SDS011;39791;53.184;5.486;2024-03-23T14:49:50;34.60;;;21.02;;
53879;SDS011;39791;53.184;5.486;2024-03-23T14:52:16;32.33;;;21.80;;
53879;SDS011;39791;53.184;5.486;2024-03-23T14:54:43;39.92;;;20.50;;
53879;SDS011;39791;53.184;5.486;2024-03-23T14:57:09;34.83;;;23.58;;
53879;SDS011;39791;53.184;5.486;2024-03-23T14:59:35;32.40;;;22.35;;
53879;SDS011;39791;53.184;5.486;2024-03-23T15:02:03;30.48;;;23.00;;
53879;SDS011;39791;53.184;5.486;2024-03-23T15:04:29;29.50;;;20.52;;
53879;SDS011;39791;53.184;5.486;2024-03-23T15:06:55;24.83;;;19.83;;
53879;SDS011;39791;53.184;5.486;2024-03-23T15:09:20;27.05;;;20.95;;
53879;SDS011;39791;53.184;5.486;2024-03-23T15:11:46;24.00;;;17.52;;
53879;SDS011;39791;53.184;5.486;2024-03-23T15:14:12;26.98;;;21.60;;
53879;SDS011;39791;53.184;5.486;2024-03-23T15:16:37;26.13;;;21.23;;
53879;SDS011;39791;53.184;5.486;2024-03-23T15:19:03;27.05;;;21.48;;
53879;SDS011;39791;53.184;5.486;2024-03-23T15:21:31;25.70;;;19.35;;
53879;SDS011;39791;53.184;5.486;2024-03-23T15:23:57;29.52;;;20.45;;
53879;SDS011;39791;53.184;5.486;2024-03-23T15:26:23;28.85;;;22.08;;
53879;SDS011;39791;53.184;5.486;2024-03-23T15:28:48;31.67;;;23.20;;
53879;SDS011;39791;53.184;5.486;2024-03-23T15:31:23;24.33;;;21.35;;
53879;SDS011;39791;53.184;5.486;2024-03-23T15:33:50;24.67;;;18.52;;
53879;SDS011;39791;53.184;5.486;2024-03-23T15:36:16;23.55;;;18.30;;
53879;SDS011;39791;53.184;5.486;2024-03-23T15:38:42;32.80;;;21.17;;
53879;SDS011;39791;53.184;5.486;2024-03-23T15:41:08;29.88;;;19.92;;